Time;durP1;ratioP1;P1;durP2;ratioP2;P2;SDS_P1;SDS_P2;PMS_P1;PMS_P2;Temp;Humidity;BMP_temperature;BMP_pressure;BME280_temperature;BME280_humidity;BME280_pressure;Samples;Min_cycle;Max_cycle;Signal;HPM_P1;HPM_P2
2022/10/14 00:01:21;;;;;;;22.65;10.23;;;;;;;;;;5032409;28;20022;-40
2022/10/14 00:03:47;;;;;;;24.63;12.90;;;;;;;;;;5031781;28;20045;-40
2022/10/14 00:06:17;;;;;;;22.90;11.25;;;;;;;;;;5031661;28;20038;-40
2022/10/14 00:08:43;;;;;;;24.02;12.65;;;;;;;;;;5031525;28;20026;-41
2022/10/14 00:11:14;;;;;;;21.05;11.02;;;;;;;;;;5031405;28;20033;-40
2022/10/14 00:13:39;;;;;;;28.48;12.45;;;;;;;;;;5031602;28;20495;-40
2022/10/14 00:16:06;;;;;;;26.67;11.68;;;;;;;;;;5031362;28;20025;-40
2022/10/14 00:18:31;;;;;;;23.58;10.20;;;;;;;;;;5031348;28;20472;-40
2022/10/14 00:20:57;;;;;;;23.13;10.77;;;;;;;;;;5031088;28;20031;-40
2022/10/14 00:23:22;;;;;;;23.48;11.30;;;;;;;;;;5031395;28;20065;-40
2022/10/14 00:25:48;;;;;;;23.10;11.85;;;;;;;;;;5031617;28;20049;-40
2022/10/14 00:28:16;;;;;;;27.70;13.07;;;;;;;;;;5031101;28;20535;-40
2022/10/14 00:30:41;;;;;;;23.30;11.57;;;;;;;;;;5029935;28;20109;-39
2022/10/14 00:33:08;;;;;;;23.10;11.38;;;;;;;;;;5031109;28;20057;-40
2022/10/14 00:35:33;;;;;;;20.38;9.48;;;;;;;;;;5013460;28;20049;-40
2022/10/14 00:37:59;;;;;;;22.35;11.68;;;;;;;;;;5013283;28;20124;-40
2022/10/14 00:40:24;;;;;;;22.60;11.13;;;;;;;;;;5013426;28;20041;-40
2022/10/14 00:42:50;;;;;;;20.25;11.35;;;;;;;;;;5031262;28;20467;-40
2022/10/14 00:45:19;;;;;;;20.98;11.40;;;;;;;;;;5013399;28;20384;-39
2022/10/14 00:47:46;;;;;;;21.40;11.30;;;;;;;;;;5031156;28;20083;-40
2022/10/14 00:50:12;;;;;;;27.17;13.52;;;;;;;;;;5031257;28;20057;-41
2022/10/14 00:52:38;;;;;;;27.58;12.23;;;;;;;;;;5013275;28;20075;-40
2022/10/14 00:55:05;;;;;;;27.08;14.00;;;;;;;;;;5013198;28;20026;-40
2022/10/14 00:57:30;;;;;;;28.02;11.52;;;;;;;;;;5013190;28;20492;-40
2022/10/14 01:00:00;;;;;;;26.30;11.05;;;;;;;;;;5030869;28;20025;-40
2022/10/14 01:02:26;;;;;;;20.65;10.77;;;;;;;;;;5030964;28;20037;-40
2022/10/14 01:04:51;;;;;;;19.73;9.90;;;;;;;;;;5031152;28;20025;-40
2022/10/14 01:07:43;;;;;;;25.67;11.57;;;;;;;;;;5031480;28;20357;-40
2022/10/14 01:10:09;;;;;;;23.23;11.98;;;;;;;;;;5000227;28;20045;-40
2022/10/14 01:12:37;;;;;;;19.85;9.75;;;;;;;;;;5030821;28;20815;-40
2022/10/14 01:15:06;;;;;;;22.75;11.18;;;;;;;;;;5013092;28;20038;-40
2022/10/14 01:17:37;;;;;;;19.13;9.68;;;;;;;;;;5013032;28;20483;-40
2022/10/14 01:20:15;;;;;;;19.90;9.85;;;;;;;;;;5012961;28;20037;-40
2022/10/14 01:22:44;;;;;;;19.05;11.90;;;;;;;;;;5029485;28;20125;-40
2022/10/14 01:25:18;;;;;;;27.50;13.95;;;;;;;;;;5030557;28;20385;-40
2022/10/14 01:27:52;;;;;;;25.27;12.30;;;;;;;;;;5030826;28;20487;-41
2022/10/14 01:30:19;;;;;;;19.05;9.73;;;;;;;;;;5030854;28;20040;-40
2022/10/14 01:32:49;;;;;;;28.20;12.55;;;;;;;;;;5030648;28;20018;-40
2022/10/14 01:35:23;;;;;;;22.80;11.10;;;;;;;;;;5030611;28;20056;-41
2022/10/14 01:37:54;;;;;;;21.92;11.07;;;;;;;;;;5030610;28;20403;-40
2022/10/14 01:40:31;;;;;;;24.10;12.52;;;;;;;;;;5012915;28;20041;-41
2022/10/14 01:42:59;;;;;;;28.33;11.45;;;;;;;;;;5032822;28;20062;-40
2022/10/14 01:45:25;;;;;;;25.08;11.52;;;;;;;;;;5016368;28;20049;-40
2022/10/14 01:47:52;;;;;;;28.25;11.80;;;;;;;;;;5032758;28;20041;-40
2022/10/14 01:50:19;;;;;;;23.27;11.18;;;;;;;;;;5016294;28;20448;-40
2022/10/14 01:53:04;;;;;;;22.02;12.02;;;;;;;;;;5034168;28;20124;-40
2022/10/14 01:55:35;;;;;;;28.85;12.80;;;;;;;;;;5033938;28;20022;-40
2022/10/14 01:58:01;;;;;;;20.77;10.30;;;;;;;;;;5033841;28;20048;-40
2022/10/14 02:00:27;;;;;;;29.48;13.93;;;;;;;;;;5032547;28;20044;-40
2022/10/14 02:02:52;;;;;;;23.90;12.48;;;;;;;;;;5033819;28;20026;-40
2022/10/14 02:05:21;;;;;;;19.25;10.45;;;;;;;;;;5015960;28;20037;-40
2022/10/14 02:07:55;;;;;;;27.13;11.90;;;;;;;;;;5033653;28;20065;-40
2022/10/14 02:10:25;;;;;;;23.60;10.90;;;;;;;;;;5032411;28;20029;-40
2022/10/14 02:12:50;;;;;;;26.67;11.65;;;;;;;;;;5015866;28;20114;-40
2022/10/14 02:15:20;;;;;;;27.10;11.70;;;;;;;;;;5015715;28;20022;-40
2022/10/14 02:17:56;;;;;;;23.23;12.93;;;;;;;;;;5015740;28;20069;-40
2022/10/14 02:20:29;;;;;;;23.65;11.98;;;;;;;;;;5032212;28;20037;-41
2022/10/14 02:23:01;;;;;;;20.60;12.30;;;;;;;;;;5033306;28;20056;-40
2022/10/14 02:25:31;;;;;;;24.13;11.95;;;;;;;;;;5033355;28;20033;-40
2022/10/14 02:27:57;;;;;;;22.23;12.95;;;;;;;;;;5033543;28;20104;-40
2022/10/14 02:30:24;;;;;;;24.88;11.63;;;;;;;;;;5015445;28;20124;-40
2022/10/14 02:32:55;;;;;;;22.17;11.25;;;;;;;;;;5033491;28;20025;-39
2022/10/14 02:35:22;;;;;;;25.00;11.65;;;;;;;;;;5033236;28;20168;-40
2022/10/14 02:37:48;;;;;;;32.00;11.57;;;;;;;;;;5015207;28;20048;-40
2022/10/14 02:40:25;;;;;;;28.10;12.02;;;;;;;;;;5031725;28;20041;-40
2022/10/14 02:42:52;;;;;;;20.63;11.27;;;;;;;;;;5031675;28;20551;-40
2022/10/14 02:45:18;;;;;;;23.58;12.45;;;;;;;;;;5015235;28;20116;-40
2022/10/14 02:47:44;;;;;;;26.10;10.88;;;;;;;;;;5031716;28;20029;-41
2022/10/14 02:50:10;;;;;;;30.40;13.15;;;;;;;;;;5015037;28;20026;-39
2022/10/14 02:52:35;;;;;;;21.95;11.55;;;;;;;;;;5014868;28;20026;-40
2022/10/14 02:55:00;;;;;;;24.50;11.45;;;;;;;;;;5031858;28;20087;-40
2022/10/14 02:57:26;;;;;;;24.40;12.70;;;;;;;;;;5033047;28;20029;-40
2022/10/14 02:59:53;;;;;;;29.65;13.25;;;;;;;;;;5031426;28;20084;-40
2022/10/14 03:02:19;;;;;;;28.00;13.20;;;;;;;;;;5032870;28;20029;-40
2022/10/14 03:04:45;;;;;;;23.38;11.65;;;;;;;;;;5031324;28;20503;-40
2022/10/14 03:07:11;;;;;;;24.63;12.85;;;;;;;;;;5014729;28;20030;-40
2022/10/14 03:09:42;;;;;;;23.77;13.00;;;;;;;;;;5031280;28;20067;-40
2022/10/14 03:12:08;;;;;;;28.45;12.20;;;;;;;;;;5014538;28;20116;-40
2022/10/14 03:14:34;;;;;;;24.42;12.30;;;;;;;;;;5014668;28;20120;-42
2022/10/14 03:17:01;;;;;;;23.38;10.40;;;;;;;;;;5014601;28;20044;-40
2022/10/14 03:19:29;;;;;;;23.80;11.10;;;;;;;;;;5014827;28;20033;-40
2022/10/14 03:21:55;;;;;;;25.88;12.85;;;;;;;;;;5031016;28;20040;-40
2022/10/14 03:24:20;;;;;;;23.23;12.48;;;;;;;;;;5032351;28;20026;-40
2022/10/14 03:26:54;;;;;;;26.48;11.27;;;;;;;;;;5032212;28;20125;-40
2022/10/14 03:29:24;;;;;;;23.27;11.63;;;;;;;;;;5014426;28;20029;-40
2022/10/14 03:31:55;;;;;;;30.77;11.68;;;;;;;;;;5030820;28;20037;-40
2022/10/14 03:34:44;;;;;;;23.15;12.90;;;;;;;;;;5030814;28;20033;-40
2022/10/14 03:37:14;;;;;;;37.55;12.57;;;;;;;;;;5030570;28;20091;-40
2022/10/14 03:39:46;;;;;;;20.80;11.02;;;;;;;;;;5013959;28;20765;-40
2022/10/14 03:42:13;;;;;;;20.25;11.07;;;;;;;;;;5030575;28;20022;-40
2022/10/14 03:44:43;;;;;;;22.13;11.75;;;;;;;;;;5030671;28;20468;-40
2022/10/14 03:47:14;;;;;;;22.75;12.02;;;;;;;;;;5014039;28;20639;-40
2022/10/14 03:49:39;;;;;;;25.75;12.50;;;;;;;;;;5014088;28;20128;-40
2022/10/14 03:52:12;;;;;;;22.70;10.32;;;;;;;;;;5030424;28;20032;-40
2022/10/14 03:54:40;;;;;;;26.83;12.10;;;;;;;;;;5030341;28;20492;-40
2022/10/14 03:57:06;;;;;;;23.02;12.10;;;;;;;;;;5031654;28;20051;-39
2022/10/14 03:59:39;;;;;;;22.80;11.30;;;;;;;;;;5030334;28;20045;-40
2022/10/14 04:02:06;;;;;;;20.77;11.07;;;;;;;;;;4997483;28;20033;-40
2022/10/14 04:04:31;;;;;;;27.48;12.82;;;;;;;;;;5013550;28;20384;-39
2022/10/14 04:06:58;;;;;;;28.42;13.85;;;;;;;;;;5030294;28;20525;-40
2022/10/14 04:09:26;;;;;;;24.67;12.18;;;;;;;;;;5013769;28;20032;-40
2022/10/14 04:11:52;;;;;;;26.10;11.30;;;;;;;;;;5013750;28;20030;-40
2022/10/14 04:14:43;;;;;;;29.65;15.55;;;;;;;;;;5028374;28;20040;-40
2022/10/14 04:17:09;;;;;;;23.75;10.82;;;;;;;;;;5013621;28;20026;-40
2022/10/14 04:19:34;;;;;;;25.05;11.40;;;;;;;;;;5031271;28;20391;-40
2022/10/14 04:22:01;;;;;;;23.27;11.48;;;;;;;;;;5013515;28;20111;-40
2022/10/14 04:24:27;;;;;;;24.48;12.20;;;;;;;;;;5030110;28;20045;-40
2022/10/14 04:26:56;;;;;;;23.58;11.63;;;;;;;;;;5013530;28;20025;-40
2022/10/14 04:29:54;;;;;;;24.73;11.82;;;;;;;;;;5016756;28;20037;-39
2022/10/14 04:32:27;;;;;;;27.27;12.63;;;;;;;;;;5029941;28;20033;-40
2022/10/14 04:34:53;;;;;;;21.25;10.25;;;;;;;;;;5029956;28;20029;-40
2022/10/14 04:37:22;;;;;;;27.60;14.32;;;;;;;;;;5013263;28;20115;-40
2022/10/14 04:39:58;;;;;;;23.88;11.02;;;;;;;;;;5013327;28;20050;-40
2022/10/14 04:42:24;;;;;;;22.67;11.68;;;;;;;;;;5013394;28;20412;-40
2022/10/14 04:44:54;;;;;;;35.65;11.90;;;;;;;;;;5029703;28;20384;-39
2022/10/14 04:47:27;;;;;;;22.75;11.35;;;;;;;;;;5029854;28;20071;-40
2022/10/14 04:49:57;;;;;;;31.33;11.88;;;;;;;;;;5029669;28;20026;-40
2022/10/14 04:52:22;;;;;;;23.30;11.30;;;;;;;;;;5029750;28;20506;-40
2022/10/14 04:54:53;;;;;;;29.60;12.52;;;;;;;;;;5029795;28;20029;-40
2022/10/14 04:57:30;;;;;;;25.67;12.07;;;;;;;;;;5013365;28;20037;-40
2022/10/14 04:59:56;;;;;;;23.05;11.88;;;;;;;;;;5013233;28;20116;-40
2022/10/14 05:02:41;;;;;;;21.33;10.95;;;;;;;;;;5030943;28;20029;-40
2022/10/14 05:05:07;;;;;;;22.08;12.00;;;;;;;;;;5029559;28;20032;-40
2022/10/14 05:07:36;;;;;;;26.20;12.05;;;;;;;;;;5012716;28;20024;-39
2022/10/14 05:10:18;;;;;;;22.45;11.55;;;;;;;;;;5029503;28;20515;-39
2022/10/14 05:12:44;;;;;;;24.33;12.82;;;;;;;;;;5029523;28;20061;-39
2022/10/14 05:15:11;;;;;;;22.95;11.13;;;;;;;;;;5031077;28;20544;-39
2022/10/14 05:17:48;;;;;;;32.75;14.43;;;;;;;;;;5015462;28;20029;-39
2022/10/14 05:20:17;;;;;;;22.13;10.05;;;;;;;;;;5016526;28;20099;-39
2022/10/14 05:22:48;;;;;;;25.08;12.10;;;;;;;;;;5016791;28;20491;-40
2022/10/14 05:25:13;;;;;;;22.13;11.65;;;;;;;;;;5034498;28;20034;-40
2022/10/14 05:27:39;;;;;;;25.90;13.35;;;;;;;;;;5033182;28;20020;-41
2022/10/14 05:30:05;;;;;;;26.23;12.63;;;;;;;;;;5016559;28;20680;-40
2022/10/14 05:32:34;;;;;;;24.38;11.82;;;;;;;;;;5016574;28;20033;-39
2022/10/14 05:35:03;;;;;;;23.45;13.43;;;;;;;;;;5016502;28;20038;-39
2022/10/14 05:37:34;;;;;;;24.52;13.23;;;;;;;;;;5032903;28;20079;-39
2022/10/14 05:40:00;;;;;;;22.65;11.63;;;;;;;;;;5032860;28;20045;-40
2022/10/14 05:42:26;;;;;;;24.50;11.25;;;;;;;;;;5016405;28;20029;-39
2022/10/14 05:44:55;;;;;;;26.52;12.27;;;;;;;;;;5016376;28;20656;-39
2022/10/14 05:47:21;;;;;;;25.05;12.77;;;;;;;;;;5032790;28;20021;-40
2022/10/14 05:49:51;;;;;;;35.13;14.32;;;;;;;;;;5032741;28;20040;-40
2022/10/14 05:52:16;;;;;;;26.92;13.93;;;;;;;;;;5016200;28;20017;-40
2022/10/14 05:54:43;;;;;;;23.02;11.93;;;;;;;;;;5032903;28;20034;-39
2022/10/14 05:57:11;;;;;;;25.77;11.77;;;;;;;;;;5032595;28;20049;-40
2022/10/14 05:59:37;;;;;;;21.92;11.68;;;;;;;;;;5034135;28;20039;-40
2022/10/14 06:02:03;;;;;;;27.20;13.75;;;;;;;;;;5033703;28;20048;-39
2022/10/14 06:04:28;;;;;;;23.95;11.63;;;;;;;;;;5016047;28;20497;-40
2022/10/14 06:06:54;;;;;;;21.52;12.00;;;;;;;;;;5032439;28;20132;-39
2022/10/14 06:09:20;;;;;;;28.58;11.82;;;;;;;;;;5015801;28;20483;-39
2022/10/14 06:11:46;;;;;;;24.05;12.73;;;;;;;;;;5033692;28;20091;-39
2022/10/14 06:14:11;;;;;;;24.77;11.75;;;;;;;;;;5032339;28;20385;-39
2022/10/14 06:16:39;;;;;;;26.38;12.50;;;;;;;;;;5033555;28;20104;-41
2022/10/14 06:19:06;;;;;;;26.65;11.75;;;;;;;;;;5015776;28;20095;-39
2022/10/14 06:21:31;;;;;;;25.20;11.57;;;;;;;;;;5033665;28;20029;-40
2022/10/14 06:23:56;;;;;;;26.67;12.52;;;;;;;;;;5033378;28;20124;-40
2022/10/14 06:26:22;;;;;;;22.48;11.10;;;;;;;;;;5033377;28;20022;-40
2022/10/14 06:28:47;;;;;;;25.17;11.68;;;;;;;;;;5033346;28;20112;-40
2022/10/14 06:31:13;;;;;;;23.80;12.20;;;;;;;;;;5033170;28;20570;-40
2022/10/14 06:33:38;;;;;;;24.00;10.52;;;;;;;;;;5033249;28;20032;-40
2022/10/14 06:36:05;;;;;;;22.65;12.07;;;;;;;;;;5015471;28;20113;-40
2022/10/14 06:38:31;;;;;;;24.08;11.38;;;;;;;;;;5033029;28;20057;-40
2022/10/14 06:40:56;;;;;;;24.67;11.48;;;;;;;;;;5033076;28;20037;-40
2022/10/14 06:43:22;;;;;;;25.60;12.32;;;;;;;;;;5033033;28;20060;-40
2022/10/14 06:45:48;;;;;;;19.67;11.05;;;;;;;;;;5032941;28;20021;-40
2022/10/14 06:48:14;;;;;;;26.83;11.95;;;;;;;;;;5032947;28;20435;-40
2022/10/14 06:50:40;;;;;;;25.48;12.68;;;;;;;;;;5033121;28;20022;-40
2022/10/14 06:53:05;;;;;;;29.65;13.20;;;;;;;;;;5032816;28;20029;-40
2022/10/14 06:55:31;;;;;;;34.05;13.32;;;;;;;;;;5032881;28;20021;-40
2022/10/14 06:57:57;;;;;;;25.73;13.00;;;;;;;;;;5015112;28;20564;-40
2022/10/14 07:00:22;;;;;;;23.00;11.85;;;;;;;;;;5032764;28;20091;-39
2022/10/14 07:02:48;;;;;;;22.42;10.23;;;;;;;;;;5032720;28;20116;-40
2022/10/14 07:05:14;;;;;;;21.52;10.23;;;;;;;;;;5032621;28;20053;-40
2022/10/14 07:07:39;;;;;;;24.98;12.50;;;;;;;;;;5032509;28;20041;-40
2022/10/14 07:10:05;;;;;;;22.55;12.25;;;;;;;;;;5032531;28;20024;-40
2022/10/14 07:12:30;;;;;;;24.38;11.88;;;;;;;;;;5032792;28;20446;-39
2022/10/14 07:14:56;;;;;;;23.48;11.82;;;;;;;;;;5032423;28;20021;-40
2022/10/14 07:17:21;;;;;;;24.08;12.25;;;;;;;;;;5032360;28;20044;-40
2022/10/14 07:19:47;;;;;;;28.50;13.32;;;;;;;;;;5032362;28;20036;-40
2022/10/14 07:22:12;;;;;;;26.75;13.65;;;;;;;;;;5014472;28;20026;-40
2022/10/14 07:24:38;;;;;;;25.05;12.38;;;;;;;;;;5032626;28;20499;-40
2022/10/14 07:27:03;;;;;;;23.02;11.68;;;;;;;;;;5032207;28;20380;-40
2022/10/14 07:29:29;;;;;;;24.42;10.73;;;;;;;;;;5032223;28;20071;-40
2022/10/14 07:31:55;;;;;;;30.75;14.57;;;;;;;;;;5032079;28;20033;-40
2022/10/14 07:34:20;;;;;;;26.50;13.40;;;;;;;;;;5032103;28;20025;-40
2022/10/14 07:36:46;;;;;;;34.33;15.80;;;;;;;;;;5031933;28;20545;-40
2022/10/14 07:39:12;;;;;;;28.02;15.25;;;;;;;;;;5031459;28;20042;-40
2022/10/14 07:41:37;;;;;;;29.48;15.20;;;;;;;;;;5032049;28;20033;-40
2022/10/14 07:44:07;;;;;;;25.27;12.50;;;;;;;;;;5031905;28;20010;-40
2022/10/14 07:46:34;;;;;;;22.27;13.52;;;;;;;;;;5031913;28;20033;-40
2022/10/14 07:49:02;;;;;;;23.13;12.05;;;;;;;;;;5032060;28;20029;-39
2022/10/14 07:51:28;;;;;;;28.42;12.57;;;;;;;;;;5032107;28;20111;-40
2022/10/14 07:53:54;;;;;;;24.90;12.48;;;;;;;;;;5032068;28;20409;-40
2022/10/14 07:56:20;;;;;;;22.42;11.75;;;;;;;;;;5031694;28;20033;-39
2022/10/14 07:58:46;;;;;;;25.60;12.43;;;;;;;;;;5031740;28;20460;-40
2022/10/14 08:01:11;;;;;;;25.35;13.40;;;;;;;;;;5031439;28;20037;-44
2022/10/14 08:03:37;;;;;;;31.15;14.98;;;;;;;;;;5031869;28;20024;-42
2022/10/14 08:06:03;;;;;;;28.98;13.25;;;;;;;;;;5031777;28;20535;-40
2022/10/14 08:08:28;;;;;;;27.45;14.93;;;;;;;;;;5031807;28;20415;-40
2022/10/14 08:11:03;;;;;;;27.52;13.57;;;;;;;;;;5031339;28;20034;-40
2022/10/14 08:13:29;;;;;;;27.02;12.43;;;;;;;;;;5031769;28;20117;-40
2022/10/14 08:15:55;;;;;;;31.60;15.65;;;;;;;;;;5031741;28;20093;-40
2022/10/14 08:18:20;;;;;;;32.55;14.85;;;;;;;;;;5031294;28;20455;-40
2022/10/14 08:20:46;;;;;;;25.67;15.20;;;;;;;;;;5031290;28;20039;-40
2022/10/14 08:23:12;;;;;;;28.45;15.40;;;;;;;;;;5031390;28;20112;-40
2022/10/14 08:25:38;;;;;;;26.92;13.32;;;;;;;;;;5031520;28;20387;-40
2022/10/14 08:28:03;;;;;;;25.55;13.20;;;;;;;;;;5013566;28;20040;-40
2022/10/14 08:30:29;;;;;;;25.65;12.52;;;;;;;;;;5031326;28;20431;-40
2022/10/14 08:32:55;;;;;;;26.55;13.88;;;;;;;;;;5031744;28;20424;-40
2022/10/14 08:35:20;;;;;;;31.45;15.13;;;;;;;;;;5031218;28;20022;-40
2022/10/14 08:37:56;;;;;;;28.55;14.48;;;;;;;;;;5031040;28;20049;-40
2022/10/14 08:40:23;;;;;;;30.02;12.63;;;;;;;;;;5031219;28;20276;-40
2022/10/14 08:42:48;;;;;;;23.90;12.43;;;;;;;;;;5031130;28;20026;-40
2022/10/14 08:45:18;;;;;;;28.80;13.23;;;;;;;;;;5031085;28;20045;-40
2022/10/14 08:47:45;;;;;;;28.60;14.77;;;;;;;;;;5031059;28;20033;-40
2022/10/14 08:50:13;;;;;;;23.05;12.70;;;;;;;;;;5013262;28;20460;-40
2022/10/14 08:52:41;;;;;;;20.08;10.45;;;;;;;;;;5035144;28;20096;-40
2022/10/14 08:55:16;;;;;;;29.17;13.77;;;;;;;;;;5035086;28;20473;-40
2022/10/14 08:57:46;;;;;;;18.85;11.60;;;;;;;;;;5035062;28;20076;-40
2022/10/14 09:00:13;;;;;;;26.92;12.50;;;;;;;;;;5034708;28;20033;-40
2022/10/14 09:02:38;;;;;;;27.52;13.77;;;;;;;;;;5035215;28;20033;-40
2022/10/14 09:05:04;;;;;;;25.98;13.32;;;;;;;;;;5034845;28;20025;-40
2022/10/14 09:07:32;;;;;;;21.52;12.90;;;;;;;;;;5034919;28;20076;-40
2022/10/14 09:09:59;;;;;;;28.55;12.70;;;;;;;;;;5035045;28;20044;-40
2022/10/14 09:12:29;;;;;;;30.45;15.90;;;;;;;;;;5034887;28;20028;-40
2022/10/14 09:15:02;;;;;;;28.25;14.40;;;;;;;;;;5034657;28;20523;-40
2022/10/14 09:17:31;;;;;;;22.10;11.63;;;;;;;;;;5034999;28;20030;-40
2022/10/14 09:20:04;;;;;;;26.83;13.77;;;;;;;;;;5034776;28;20080;-40
2022/10/14 09:22:29;;;;;;;25.90;12.82;;;;;;;;;;5034527;28;20029;-40
2022/10/14 09:24:56;;;;;;;26.00;14.80;;;;;;;;;;5034838;28;20033;-41
2022/10/14 09:27:21;;;;;;;22.23;11.02;;;;;;;;;;5034470;28;20468;-40
2022/10/14 09:29:47;;;;;;;25.13;14.25;;;;;;;;;;5016718;28;20036;-40
2022/10/14 09:32:31;;;;;;;21.85;11.57;;;;;;;;;;5034589;28;20108;-40
2022/10/14 09:34:57;;;;;;;24.27;12.75;;;;;;;;;;5034379;28;20041;-40
2022/10/14 09:37:22;;;;;;;29.50;14.23;;;;;;;;;;5033924;28;20042;-40
2022/10/14 09:39:49;;;;;;;25.35;13.48;;;;;;;;;;5034225;28;20050;-40
2022/10/14 09:42:20;;;;;;;22.95;12.70;;;;;;;;;;5034419;28;20017;-42
2022/10/14 09:45:01;;;;;;;26.63;13.43;;;;;;;;;;5034416;28;20033;-40
2022/10/14 09:47:28;;;;;;;28.48;13.98;;;;;;;;;;5034231;28;20030;-40
2022/10/14 09:49:54;;;;;;;23.45;12.52;;;;;;;;;;5034232;28;20047;-41
2022/10/14 09:52:21;;;;;;;20.27;11.27;;;;;;;;;;5034323;28;20108;-40
2022/10/14 09:54:54;;;;;;;26.73;12.82;;;;;;;;;;5034009;28;20384;-40
2022/10/14 09:57:20;;;;;;;24.63;12.98;;;;;;;;;;5033915;28;20039;-41
2022/10/14 09:59:59;;;;;;;24.45;13.32;;;;;;;;;;5033819;28;20049;-40
2022/10/14 10:02:33;;;;;;;25.88;12.48;;;;;;;;;;5033222;28;20029;-41
2022/10/14 10:05:10;;;;;;;29.52;12.27;;;;;;;;;;5033782;28;20037;-40
2022/10/14 10:07:36;;;;;;;25.13;13.18;;;;;;;;;;5033878;28;20033;-40
2022/10/14 10:10:15;;;;;;;18.55;11.98;;;;;;;;;;5033899;28;20486;-40
2022/10/14 10:12:45;;;;;;;31.25;13.88;;;;;;;;;;5033947;28;20052;-40
2022/10/14 10:15:16;;;;;;;20.38;10.90;;;;;;;;;;5033661;28;20431;-40
2022/10/14 10:17:43;;;;;;;24.10;10.52;;;;;;;;;;5033656;28;20026;-40
2022/10/14 10:20:32;;;;;;;25.73;12.65;;;;;;;;;;5033358;28;20033;-40
2022/10/14 10:23:17;;;;;;;23.73;13.18;;;;;;;;;;5033764;28;20212;-40
2022/10/14 10:25:43;;;;;;;24.10;11.80;;;;;;;;;;5033306;28;20372;-40
2022/10/14 10:28:19;;;;;;;29.10;12.10;;;;;;;;;;5033352;28;20021;-40
2022/10/14 10:30:56;;;;;;;23.58;13.43;;;;;;;;;;5032088;28;20030;-40
2022/10/14 10:33:32;;;;;;;21.92;11.85;;;;;;;;;;5033127;28;20025;-40
2022/10/14 10:36:05;;;;;;;20.92;12.05;;;;;;;;;;5033538;28;20164;-40
2022/10/14 10:38:34;;;;;;;23.83;11.82;;;;;;;;;;5033221;28;20084;-40
2022/10/14 10:41:21;;;;;;;17.90;10.88;;;;;;;;;;5032976;28;20041;-40
2022/10/14 10:44:06;;;;;;;26.13;13.23;;;;;;;;;;5033036;28;20061;-40
2022/10/14 10:46:34;;;;;;;19.98;11.57;;;;;;;;;;5033108;28;20067;-41
2022/10/14 10:49:07;;;;;;;23.52;12.98;;;;;;;;;;5033230;28;20055;-40
2022/10/14 10:51:39;;;;;;;20.98;10.93;;;;;;;;;;5032951;28;20109;-40
2022/10/14 10:54:06;;;;;;;23.83;12.45;;;;;;;;;;5031666;28;20025;-40
2022/10/14 10:56:37;;;;;;;30.13;12.07;;;;;;;;;;5032861;28;20040;-40
2022/10/14 10:59:21;;;;;;;17.33;10.15;;;;;;;;;;5032955;28;20437;-41
2022/10/14 11:01:55;;;;;;;21.08;11.23;;;;;;;;;;5032681;28;20052;-41
2022/10/14 11:04:32;;;;;;;24.45;13.40;;;;;;;;;;5032571;28;20064;-41
2022/10/14 11:12:40;;;;;;;29.90;13.43;;;;;;;;;;5032686;28;20034;-41
2022/10/14 11:15:09;;;;;;;26.08;13.48;;;;;;;;;;5031498;28;20017;-40
2022/10/14 11:17:58;;;;;;;25.92;12.07;;;;;;;;;;5032477;28;20037;-40
2022/10/14 11:20:41;;;;;;;25.98;11.65;;;;;;;;;;5032494;28;20037;-41
2022/10/14 11:23:13;;;;;;;26.55;13.43;;;;;;;;;;5032303;28;20108;-41
2022/10/14 11:25:54;;;;;;;25.02;10.60;;;;;;;;;;5032291;28;20029;-40
2022/10/14 11:28:25;;;;;;;18.75;10.90;;;;;;;;;;5032488;28;20377;-40
2022/10/14 11:31:03;;;;;;;35.80;12.15;;;;;;;;;;5032080;28;20120;-40
2022/10/14 11:34:01;;;;;;;24.58;13.02;;;;;;;;;;5134107;22;20045;-41
2022/10/14 11:36:37;;;;;;;30.23;13.18;;;;;;;;;;5008067;28;20042;-40
2022/10/14 11:39:03;;;;;;;25.73;11.90;;;;;;;;;;4993154;28;20120;-41
2022/10/14 11:41:47;;;;;;;19.92;10.20;;;;;;;;;;4992853;28;20484;-40
2022/10/14 11:44:18;;;;;;;25.55;11.00;;;;;;;;;;4992832;28;20380;-40
2022/10/14 11:46:58;;;;;;;22.20;11.65;;;;;;;;;;5088882;27;20456;-38
2022/10/14 11:49:26;;;;;;;21.60;11.68;;;;;;;;;;5089080;28;20492;-41
2022/10/14 11:51:57;;;;;;;24.70;11.77;;;;;;;;;;5089183;28;20013;-41
2022/10/14 11:54:49;;;;;;;26.85;11.68;;;;;;;;;;5089137;28;20376;-41
2022/10/14 11:57:26;;;;;;;23.20;11.90;;;;;;;;;;5086833;28;20037;-39
2022/10/14 12:00:00;;;;;;;26.00;12.02;;;;;;;;;;5089058;28;20059;-41
2022/10/14 12:02:53;;;;;;;27.58;12.52;;;;;;;;;;5088802;28;20025;-39
2022/10/14 12:05:29;;;;;;;21.38;10.20;;;;;;;;;;5086665;28;20083;-39
2022/10/14 12:08:01;;;;;;;23.00;13.18;;;;;;;;;;5088931;28;20479;-39
2022/10/14 12:10:31;;;;;;;19.98;11.30;;;;;;;;;;5088645;28;20028;-39
2022/10/14 12:12:58;;;;;;;25.83;11.77;;;;;;;;;;5088493;28;20053;-40
2022/10/14 12:15:25;;;;;;;22.10;12.65;;;;;;;;;;5088795;28;20101;-39
2022/10/14 12:17:55;;;;;;;20.38;10.65;;;;;;;;;;5088744;28;20115;-39
2022/10/14 12:20:43;;;;;;;25.35;13.02;;;;;;;;;;5088470;28;20047;-39
2022/10/14 12:23:12;;;;;;;18.90;11.43;;;;;;;;;;5086797;28;20016;-39
2022/10/14 12:25:50;;;;;;;29.65;12.35;;;;;;;;;;5088531;28;20111;-40
2022/10/14 12:28:17;;;;;;;33.13;13.55;;;;;;;;;;5088246;28;20547;-40
2022/10/14 12:30:43;;;;;;;23.85;11.75;;;;;;;;;;5088309;28;20024;-39
2022/10/14 12:33:10;;;;;;;25.02;13.50;;;;;;;;;;5088086;28;20036;-39
2022/10/14 12:35:49;;;;;;;23.85;12.20;;;;;;;;;;5088198;28;20048;-40
2022/10/14 12:38:16;;;;;;;26.13;11.20;;;;;;;;;;5088344;28;20032;-39
2022/10/14 12:40:42;;;;;;;26.27;13.10;;;;;;;;;;5088087;28;20713;-39
2022/10/14 12:43:13;;;;;;;26.85;13.13;;;;;;;;;;5087948;28;20028;-39
2022/10/14 12:45:46;;;;;;;19.05;10.10;;;;;;;;;;5087776;28;20461;-39
2022/10/14 12:48:18;;;;;;;21.52;12.80;;;;;;;;;;5088194;28;20020;-39
2022/10/14 12:50:45;;;;;;;22.02;11.23;;;;;;;;;;5087806;28;20048;-39
2022/10/14 12:53:20;;;;;;;19.77;11.10;;;;;;;;;;5088009;28;20437;-40
2022/10/14 12:55:53;;;;;;;31.23;10.90;;;;;;;;;;5088006;28;20405;-39
2022/10/14 12:58:45;;;;;;;19.60;11.68;;;;;;;;;;5073631;28;20115;-39
2022/10/14 13:01:15;;;;;;;23.05;12.13;;;;;;;;;;5072949;28;20440;-41
2022/10/14 13:03:51;;;;;;;23.40;10.95;;;;;;;;;;5074378;28;20040;-39
2022/10/14 13:06:26;;;;;;;22.13;11.30;;;;;;;;;;5074022;28;20510;-39
2022/10/14 13:09:10;;;;;;;21.65;13.10;;;;;;;;;;5074261;28;20039;-39
2022/10/14 13:11:37;;;;;;;24.05;12.35;;;;;;;;;;5074067;28;20071;-40
2022/10/14 13:14:24;;;;;;;22.70;12.18;;;;;;;;;;5072651;28;20522;-40
2022/10/14 13:16:50;;;;;;;22.55;12.63;;;;;;;;;;5073515;28;20182;-39
2022/10/14 13:19:36;;;;;;;17.35;10.98;;;;;;;;;;5073752;28;20115;-41
2022/10/14 13:22:20;;;;;;;21.88;10.55;;;;;;;;;;5073645;28;20032;-40
2022/10/14 13:24:45;;;;;;;21.83;10.02;;;;;;;;;;5073715;28;20037;-39
2022/10/14 13:27:32;;;;;;;21.27;11.15;;;;;;;;;;5073947;28;20031;-39
2022/10/14 13:30:04;;;;;;;21.38;10.73;;;;;;;;;;5073622;28;20025;-39
2022/10/14 13:32:31;;;;;;;21.37;10.13;;;;;;;;;;5073707;28;20063;-40
2022/10/14 13:35:06;;;;;;;24.02;10.90;;;;;;;;;;5073721;28;20067;-40
2022/10/14 13:37:39;;;;;;;20.88;10.65;;;;;;;;;;5073597;28;20021;-40
2022/10/14 13:40:18;;;;;;;17.85;9.20;;;;;;;;;;5073504;28;20059;-39
2022/10/14 13:42:44;;;;;;;19.08;9.07;;;;;;;;;;5073408;28;20494;-39
2022/10/14 13:45:13;;;;;;;18.60;10.00;;;;;;;;;;5073150;28;20048;-39
2022/10/14 13:47:46;;;;;;;26.55;11.85;;;;;;;;;;5073351;28;20033;-39
2022/10/14 13:50:14;;;;;;;21.50;9.68;;;;;;;;;;5073263;28;20024;-39
2022/10/14 13:52:40;;;;;;;29.17;11.43;;;;;;;;;;5073244;28;20025;-39
2022/10/14 13:55:32;;;;;;;18.35;8.40;;;;;;;;;;5072970;28;20090;-40
2022/10/14 13:58:18;;;;;;;16.77;9.73;;;;;;;;;;5071760;28;20051;-39
2022/10/14 14:00:58;;;;;;;22.92;10.18;;;;;;;;;;5072823;28;20040;-40
2022/10/14 14:03:24;;;;;;;17.92;9.55;;;;;;;;;;5072998;28;20040;-40
2022/10/14 14:05:50;;;;;;;20.63;10.10;;;;;;;;;;5073173;28;20025;-40
2022/10/14 14:08:19;;;;;;;18.92;8.88;;;;;;;;;;5071992;28;20565;-40
2022/10/14 14:11:10;;;;;;;21.15;10.23;;;;;;;;;;5072900;28;20055;-39
2022/10/14 14:13:48;;;;;;;21.63;10.88;;;;;;;;;;5064136;28;20044;-40
2022/10/14 14:16:21;;;;;;;18.17;10.93;;;;;;;;;;5072637;28;20042;-39
2022/10/14 14:18:48;;;;;;;18.85;9.98;;;;;;;;;;5072709;28;20021;-40
2022/10/14 14:21:13;;;;;;;22.25;9.52;;;;;;;;;;5072513;28;20031;-40
2022/10/14 14:23:49;;;;;;;33.67;10.55;;;;;;;;;;5072562;28;20032;-39
2022/10/14 14:26:15;;;;;;;21.05;10.20;;;;;;;;;;5072331;28;20139;-41
2022/10/14 14:28:44;;;;;;;17.67;9.77;;;;;;;;;;5072513;28;20096;-39
2022/10/14 14:31:13;;;;;;;22.30;10.90;;;;;;;;;;5072437;28;20036;-39
2022/10/14 14:33:39;;;;;;;17.98;9.93;;;;;;;;;;5072303;28;20396;-40
2022/10/14 14:36:11;;;;;;;17.17;10.27;;;;;;;;;;5072594;28;20040;-39
2022/10/14 14:38:37;;;;;;;21.23;10.50;;;;;;;;;;5072488;28;20052;-40
2022/10/14 14:41:15;;;;;;;17.75;10.13;;;;;;;;;;5072276;28;20055;-39